sensor_id;sensor_type;location;lat;lon;timestamp;temperature;humidity
10692;DHT22;5396;50.950;6.988;2023-12-14T00:01:07;8.20;99.90
10692;DHT22;5396;50.950;6.988;2023-12-14T00:03:35;8.20;99.90
10692;DHT22;5396;50.950;6.988;2023-12-14T00:06:01;8.30;99.90
10692;DHT22;5396;50.950;6.988;2023-12-14T00:08:26;8.20;99.90
10692;DHT22;5396;50.950;6.988;2023-12-14T00:10:51;8.20;99.90
10692;DHT22;5396;50.950;6.988;2023-12-14T00:13:17;8.20;99.90
10692;DHT22;5396;50.950;6.988;2023-12-14T00:15:42;8.20;99.90
10692;DHT22;5396;50.950;6.988;2023-12-14T00:18:08;8.10;99.90
10692;DHT22;5396;50.950;6.988;2023-12-14T00:20:33;8.20;99.90
10692;DHT22;5396;50.950;6.988;2023-12-14T00:22:59;8.10;99.90
10692;DHT22;5396;50.950;6.988;2023-12-14T00:25:24;8.10;99.90
10692;DHT22;5396;50.950;6.988;2023-12-14T00:27:50;8.10;99.90
10692;DHT22;5396;50.950;6.988;2023-12-14T00:30:15;8.10;99.90
10692;DHT22;5396;50.950;6.988;2023-12-14T00:32:41;8.10;99.90
10692;DHT22;5396;50.950;6.988;2023-12-14T00:35:06;8.10;99.90
10692;DHT22;5396;50.950;6.988;2023-12-14T00:37:32;8.10;99.90
10692;DHT22;5396;50.950;6.988;2023-12-14T00:39:57;8.10;99.90
10692;DHT22;5396;50.950;6.988;2023-12-14T00:42:23;8.10;99.90
10692;DHT22;5396;50.950;6.988;2023-12-14T00:44:48;8.10;99.90
10692;DHT22;5396;50.950;6.988;2023-12-14T00:47:14;8.10;99.90
10692;DHT22;5396;50.950;6.988;2023-12-14T00:49:39;8.10;99.90
10692;DHT22;5396;50.950;6.988;2023-12-14T00:52:05;8.10;99.90
10692;DHT22;5396;50.950;6.988;2023-12-14T00:54:31;8.10;99.90
10692;DHT22;5396;50.950;6.988;2023-12-14T00:56:56;8.10;99.90
10692;DHT22;5396;50.950;6.988;2023-12-14T00:59:23;8.10;99.90
10692;DHT22;5396;50.950;6.988;2023-12-14T01:01:48;8.20;99.90
10692;DHT22;5396;50.950;6.988;2023-12-14T01:04:14;8.20;99.90
10692;DHT22;5396;50.950;6.988;2023-12-14T01:06:39;8.10;99.90
10692;DHT22;5396;50.950;6.988;2023-12-14T01:09:05;8.10;99.90
10692;DHT22;5396;50.950;6.988;2023-12-14T01:11:30;8.10;99.90
10692;DHT22;5396;50.950;6.988;2023-12-14T01:13:56;8.10;99.90
10692;DHT22;5396;50.950;6.988;2023-12-14T01:16:21;8.10;99.90
10692;DHT22;5396;50.950;6.988;2023-12-14T01:18:47;8.10;99.90
10692;DHT22;5396;50.950;6.988;2023-12-14T01:21:12;8.10;99.90
10692;DHT22;5396;50.950;6.988;2023-12-14T01:23:38;8.10;99.90
10692;DHT22;5396;50.950;6.988;2023-12-14T01:26:03;8.10;99.90
10692;DHT22;5396;50.950;6.988;2023-12-14T01:28:29;8.10;99.90
10692;DHT22;5396;50.950;6.988;2023-12-14T01:30:54;8.10;99.90
10692;DHT22;5396;50.950;6.988;2023-12-14T01:33:19;8.10;99.90
10692;DHT22;5396;50.950;6.988;2023-12-14T01:35:45;8.10;99.90
10692;DHT22;5396;50.950;6.988;2023-12-14T01:38:11;8.00;99.90
10692;DHT22;5396;50.950;6.988;2023-12-14T01:40:36;8.00;99.90
10692;DHT22;5396;50.950;6.988;2023-12-14T01:43:08;8.00;99.90
10692;DHT22;5396;50.950;6.988;2023-12-14T01:45:36;8.00;99.90
10692;DHT22;5396;50.950;6.988;2023-12-14T01:48:03;8.00;99.90
10692;DHT22;5396;50.950;6.988;2023-12-14T01:50:28;8.00;99.90
10692;DHT22;5396;50.950;6.988;2023-12-14T01:52:54;8.00;99.90
10692;DHT22;5396;50.950;6.988;2023-12-14T01:55:19;8.00;99.90
10692;DHT22;5396;50.950;6.988;2023-12-14T01:57:45;8.00;99.90
10692;DHT22;5396;50.950;6.988;2023-12-14T02:00:13;8.00;99.90
10692;DHT22;5396;50.950;6.988;2023-12-14T02:02:45;8.00;99.90
10692;DHT22;5396;50.950;6.988;2023-12-14T02:05:10;8.00;99.90
10692;DHT22;5396;50.950;6.988;2023-12-14T02:07:36;8.00;99.90
10692;DHT22;5396;50.950;6.988;2023-12-14T02:10:01;8.00;99.90
10692;DHT22;5396;50.950;6.988;2023-12-14T02:12:27;8.00;99.90
10692;DHT22;5396;50.950;6.988;2023-12-14T02:14:52;8.00;99.90
10692;DHT22;5396;50.950;6.988;2023-12-14T02:17:18;8.00;99.90
10692;DHT22;5396;50.950;6.988;2023-12-14T02:19:43;8.00;99.90
10692;DHT22;5396;50.950;6.988;2023-12-14T02:22:09;8.00;99.90
10692;DHT22;5396;50.950;6.988;2023-12-14T02:24:34;8.00;99.90
10692;DHT22;5396;50.950;6.988;2023-12-14T02:27:00;8.00;99.90
10692;DHT22;5396;50.950;6.988;2023-12-14T02:29:25;8.00;99.90
10692;DHT22;5396;50.950;6.988;2023-12-14T02:31:51;8.10;99.90
10692;DHT22;5396;50.950;6.988;2023-12-14T02:34:16;8.10;99.90
10692;DHT22;5396;50.950;6.988;2023-12-14T02:36:42;8.10;99.90
10692;DHT22;5396;50.950;6.988;2023-12-14T02:39:07;8.10;99.90
10692;DHT22;5396;50.950;6.988;2023-12-14T02:41:32;8.10;99.90
10692;DHT22;5396;50.950;6.988;2023-12-14T02:43:58;8.20;99.90
10692;DHT22;5396;50.950;6.988;2023-12-14T02:46:23;8.20;99.90
10692;DHT22;5396;50.950;6.988;2023-12-14T02:48:49;8.10;99.90
10692;DHT22;5396;50.950;6.988;2023-12-14T02:51:15;8.10;99.90
10692;DHT22;5396;50.950;6.988;2023-12-14T02:53:41;8.10;99.90
10692;DHT22;5396;50.950;6.988;2023-12-14T02:56:06;8.00;99.90
10692;DHT22;5396;50.950;6.988;2023-12-14T02:58:33;8.00;99.90
10692;DHT22;5396;50.950;6.988;2023-12-14T03:00:58;7.90;99.90
10692;DHT22;5396;50.950;6.988;2023-12-14T03:03:24;7.90;99.90
10692;DHT22;5396;50.950;6.988;2023-12-14T03:05:49;7.90;99.90
10692;DHT22;5396;50.950;6.988;2023-12-14T03:08:15;7.90;99.90
10692;DHT22;5396;50.950;6.988;2023-12-14T03:10:40;7.90;99.90
10692;DHT22;5396;50.950;6.988;2023-12-14T03:13:06;7.80;99.90
10692;DHT22;5396;50.950;6.988;2023-12-14T03:15:33;7.80;99.90
10692;DHT22;5396;50.950;6.988;2023-12-14T03:17:58;7.70;99.90
10692;DHT22;5396;50.950;6.988;2023-12-14T03:20:24;7.70;99.90
10692;DHT22;5396;50.950;6.988;2023-12-14T03:22:49;7.60;99.90
10692;DHT22;5396;50.950;6.988;2023-12-14T03:25:15;7.60;99.90
10692;DHT22;5396;50.950;6.988;2023-12-14T03:27:40;7.60;99.90
10692;DHT22;5396;50.950;6.988;2023-12-14T03:30:06;7.60;99.90
10692;DHT22;5396;50.950;6.988;2023-12-14T03:32:35;7.50;99.90
10692;DHT22;5396;50.950;6.988;2023-12-14T03:35:00;7.50;99.90
10692;DHT22;5396;50.950;6.988;2023-12-14T03:37:26;7.50;99.90
10692;DHT22;5396;50.950;6.988;2023-12-14T03:39:51;7.50;99.90
10692;DHT22;5396;50.950;6.988;2023-12-14T03:42:16;7.50;99.90
10692;DHT22;5396;50.950;6.988;2023-12-14T03:44:42;7.50;99.90
10692;DHT22;5396;50.950;6.988;2023-12-14T03:47:07;7.50;99.90
10692;DHT22;5396;50.950;6.988;2023-12-14T03:49:36;7.50;99.90
10692;DHT22;5396;50.950;6.988;2023-12-14T03:52:03;7.40;99.90
10692;DHT22;5396;50.950;6.988;2023-12-14T03:54:29;7.40;99.90
10692;DHT22;5396;50.950;6.988;2023-12-14T03:56:54;7.40;99.90
10692;DHT22;5396;50.950;6.988;2023-12-14T03:59:20;7.40;99.90
10692;DHT22;5396;50.950;6.988;2023-12-14T04:01:45;7.40;99.90
10692;DHT22;5396;50.950;6.988;2023-12-14T04:04:11;7.40;99.90
10692;DHT22;5396;50.950;6.988;2023-12-14T04:06:36;7.30;99.90
10692;DHT22;5396;50.950;6.988;2023-12-14T04:09:02;7.30;99.90
10692;DHT22;5396;50.950;6.988;2023-12-14T04:11:27;7.30;99.90
10692;DHT22;5396;50.950;6.988;2023-12-14T04:13:53;7.30;99.90
10692;DHT22;5396;50.950;6.988;2023-12-14T04:16:19;7.20;99.90
10692;DHT22;5396;50.950;6.988;2023-12-14T04:18:45;7.20;99.90
10692;DHT22;5396;50.950;6.988;2023-12-14T04:21:10;7.20;99.90
10692;DHT22;5396;50.950;6.988;2023-12-14T04:23:36;7.20;99.90
10692;DHT22;5396;50.950;6.988;2023-12-14T04:26:01;7.20;99.90
10692;DHT22;5396;50.950;6.988;2023-12-14T04:28:27;7.20;99.90
10692;DHT22;5396;50.950;6.988;2023-12-14T04:30:53;7.20;99.90
10692;DHT22;5396;50.950;6.988;2023-12-14T04:33:19;7.20;99.90
10692;DHT22;5396;50.950;6.988;2023-12-14T04:35:44;7.10;99.90
10692;DHT22;5396;50.950;6.988;2023-12-14T04:38:09;7.20;99.90
10692;DHT22;5396;50.950;6.988;2023-12-14T04:40:35;7.10;99.90
10692;DHT22;5396;50.950;6.988;2023-12-14T04:43:01;7.10;99.90
10692;DHT22;5396;50.950;6.988;2023-12-14T04:45:26;7.10;99.90
10692;DHT22;5396;50.950;6.988;2023-12-14T04:47:52;7.10;99.90
10692;DHT22;5396;50.950;6.988;2023-12-14T04:50:17;7.10;99.90
10692;DHT22;5396;50.950;6.988;2023-12-14T04:52:43;7.10;99.90
10692;DHT22;5396;50.950;6.988;2023-12-14T04:55:09;7.10;99.90
10692;DHT22;5396;50.950;6.988;2023-12-14T04:57:35;7.10;99.90
10692;DHT22;5396;50.950;6.988;2023-12-14T05:00:01;7.10;99.90
10692;DHT22;5396;50.950;6.988;2023-12-14T05:02:27;7.10;99.90
10692;DHT22;5396;50.950;6.988;2023-12-14T05:04:53;7.10;99.90
10692;DHT22;5396;50.950;6.988;2023-12-14T05:07:19;7.10;99.90
10692;DHT22;5396;50.950;6.988;2023-12-14T05:09:44;7.10;99.90
10692;DHT22;5396;50.950;6.988;2023-12-14T05:12:10;7.10;99.90
10692;DHT22;5396;50.950;6.988;2023-12-14T05:14:35;7.10;99.90
10692;DHT22;5396;50.950;6.988;2023-12-14T05:17:01;7.00;99.90
10692;DHT22;5396;50.950;6.988;2023-12-14T05:19:26;7.00;99.90
10692;DHT22;5396;50.950;6.988;2023-12-14T05:21:52;7.00;99.90
10692;DHT22;5396;50.950;6.988;2023-12-14T05:24:19;7.00;99.90
10692;DHT22;5396;50.950;6.988;2023-12-14T05:26:45;7.00;99.90
10692;DHT22;5396;50.950;6.988;2023-12-14T05:29:10;7.00;99.90
10692;DHT22;5396;50.950;6.988;2023-12-14T05:31:36;6.90;99.90
10692;DHT22;5396;50.950;6.988;2023-12-14T05:34:01;6.90;99.90
10692;DHT22;5396;50.950;6.988;2023-12-14T05:36:27;6.90;99.90
10692;DHT22;5396;50.950;6.988;2023-12-14T05:38:53;6.90;99.90
10692;DHT22;5396;50.950;6.988;2023-12-14T05:43:44;6.80;99.90
10692;DHT22;5396;50.950;6.988;2023-12-14T05:46:19;6.80;99.90
10692;DHT22;5396;50.950;6.988;2023-12-14T05:48:45;6.80;99.90
10692;DHT22;5396;50.950;6.988;2023-12-14T05:51:11;6.80;99.90
10692;DHT22;5396;50.950;6.988;2023-12-14T05:53:36;6.80;99.90
10692;DHT22;5396;50.950;6.988;2023-12-14T05:56:05;6.80;99.90
10692;DHT22;5396;50.950;6.988;2023-12-14T05:58:31;6.80;99.90
10692;DHT22;5396;50.950;6.988;2023-12-14T06:00:56;6.80;99.90
10692;DHT22;5396;50.950;6.988;2023-12-14T06:03:22;6.70;99.90
10692;DHT22;5396;50.950;6.988;2023-12-14T06:05:47;6.70;99.90
10692;DHT22;5396;50.950;6.988;2023-12-14T06:08:13;6.80;99.90
10692;DHT22;5396;50.950;6.988;2023-12-14T06:10:38;6.80;99.90
10692;DHT22;5396;50.950;6.988;2023-12-14T06:13:04;6.80;99.90
10692;DHT22;5396;50.950;6.988;2023-12-14T06:15:31;6.70;99.90
10692;DHT22;5396;50.950;6.988;2023-12-14T06:17:56;6.70;99.90
10692;DHT22;5396;50.950;6.988;2023-12-14T06:20:22;6.60;99.90
10692;DHT22;5396;50.950;6.988;2023-12-14T06:22:48;6.70;99.90
10692;DHT22;5396;50.950;6.988;2023-12-14T06:25:13;6.60;99.90
10692;DHT22;5396;50.950;6.988;2023-12-14T06:27:39;6.60;99.90
10692;DHT22;5396;50.950;6.988;2023-12-14T06:30:04;6.60;99.90
10692;DHT22;5396;50.950;6.988;2023-12-14T06:32:30;6.60;99.90
10692;DHT22;5396;50.950;6.988;2023-12-14T06:34:55;6.60;99.90
10692;DHT22;5396;50.950;6.988;2023-12-14T06:37:21;6.60;99.90
10692;DHT22;5396;50.950;6.988;2023-12-14T06:39:46;6.60;99.90
10692;DHT22;5396;50.950;6.988;2023-12-14T06:42:12;6.60;99.90
10692;DHT22;5396;50.950;6.988;2023-12-14T06:44:37;6.60;99.90
10692;DHT22;5396;50.950;6.988;2023-12-14T06:47:03;6.60;99.90
10692;DHT22;5396;50.950;6.988;2023-12-14T06:49:29;6.60;99.90
10692;DHT22;5396;50.950;6.988;2023-12-14T06:51:54;6.60;99.90
10692;DHT22;5396;50.950;6.988;2023-12-14T06:54:20;6.60;99.90
10692;DHT22;5396;50.950;6.988;2023-12-14T06:56:45;6.50;99.90
10692;DHT22;5396;50.950;6.988;2023-12-14T06:59:11;6.50;99.90
10692;DHT22;5396;50.950;6.988;2023-12-14T07:01:36;6.50;99.90
10692;DHT22;5396;50.950;6.988;2023-12-14T07:04:02;6.50;99.90
10692;DHT22;5396;50.950;6.988;2023-12-14T07:06:33;6.50;99.90
10692;DHT22;5396;50.950;6.988;2023-12-14T07:09:00;6.50;99.90
10692;DHT22;5396;50.950;6.988;2023-12-14T07:11:25;6.50;99.90
10692;DHT22;5396;50.950;6.988;2023-12-14T07:13:51;6.40;99.90
10692;DHT22;5396;50.950;6.988;2023-12-14T07:16:16;6.40;99.90
10692;DHT22;5396;50.950;6.988;2023-12-14T07:18:43;6.50;99.90
10692;DHT22;5396;50.950;6.988;2023-12-14T07:21:09;6.50;99.90
10692;DHT22;5396;50.950;6.988;2023-12-14T07:23:35;6.50;99.90
10692;DHT22;5396;50.950;6.988;2023-12-14T07:26:01;6.50;99.90
10692;DHT22;5396;50.950;6.988;2023-12-14T07:28:27;6.50;99.90
10692;DHT22;5396;50.950;6.988;2023-12-14T07:30:53;6.50;99.90
10692;DHT22;5396;50.950;6.988;2023-12-14T07:33:18;6.50;99.90
10692;DHT22;5396;50.950;6.988;2023-12-14T07:35:44;6.50;99.90
10692;DHT22;5396;50.950;6.988;2023-12-14T07:38:09;6.40;99.90
10692;DHT22;5396;50.950;6.988;2023-12-14T07:40:35;6.40;99.90
10692;DHT22;5396;50.950;6.988;2023-12-14T07:43:00;6.30;99.90
10692;DHT22;5396;50.950;6.988;2023-12-14T07:45:26;6.30;99.90
10692;DHT22;5396;50.950;6.988;2023-12-14T07:47:51;6.20;99.90
10692;DHT22;5396;50.950;6.988;2023-12-14T07:50:17;6.20;99.90
10692;DHT22;5396;50.950;6.988;2023-12-14T07:52:43;6.20;99.90
10692;DHT22;5396;50.950;6.988;2023-12-14T07:55:08;6.20;99.90
10692;DHT22;5396;50.950;6.988;2023-12-14T07:57:34;6.10;99.90
10692;DHT22;5396;50.950;6.988;2023-12-14T07:59:59;6.10;99.90
10692;DHT22;5396;50.950;6.988;2023-12-14T08:02:25;6.10;99.90
10692;DHT22;5396;50.950;6.988;2023-12-14T08:04:50;6.00;99.90
10692;DHT22;5396;50.950;6.988;2023-12-14T08:07:16;6.00;99.90
10692;DHT22;5396;50.950;6.988;2023-12-14T08:09:41;6.00;99.90
10692;DHT22;5396;50.950;6.988;2023-12-14T08:12:07;5.90;99.90
10692;DHT22;5396;50.950;6.988;2023-12-14T08:14:33;6.00;99.90
10692;DHT22;5396;50.950;6.988;2023-12-14T08:16:59;5.90;99.90
10692;DHT22;5396;50.950;6.988;2023-12-14T08:19:25;5.90;99.90
10692;DHT22;5396;50.950;6.988;2023-12-14T08:21:51;5.90;99.90
10692;DHT22;5396;50.950;6.988;2023-12-14T08:24:16;5.90;99.90
10692;DHT22;5396;50.950;6.988;2023-12-14T08:26:43;5.90;99.90
10692;DHT22;5396;50.950;6.988;2023-12-14T08:29:09;5.90;99.90
10692;DHT22;5396;50.950;6.988;2023-12-14T08:31:34;5.90;99.90
10692;DHT22;5396;50.950;6.988;2023-12-14T08:34:00;5.80;99.90
10692;DHT22;5396;50.950;6.988;2023-12-14T08:36:26;5.90;99.90
10692;DHT22;5396;50.950;6.988;2023-12-14T08:38:51;5.80;99.90
10692;DHT22;5396;50.950;6.988;2023-12-14T08:41:17;5.90;99.90
10692;DHT22;5396;50.950;6.988;2023-12-14T08:43:42;5.80;99.90
10692;DHT22;5396;50.950;6.988;2023-12-14T08:46:08;5.80;99.90
10692;DHT22;5396;50.950;6.988;2023-12-14T08:48:35;5.80;99.90
10692;DHT22;5396;50.950;6.988;2023-12-14T08:51:01;5.80;99.90
10692;DHT22;5396;50.950;6.988;2023-12-14T08:53:26;5.80;99.90
10692;DHT22;5396;50.950;6.988;2023-12-14T08:55:53;5.80;99.90
10692;DHT22;5396;50.950;6.988;2023-12-14T08:58:18;5.80;99.90
10692;DHT22;5396;50.950;6.988;2023-12-14T09:00:44;5.70;99.90
10692;DHT22;5396;50.950;6.988;2023-12-14T09:03:09;5.70;99.90
10692;DHT22;5396;50.950;6.988;2023-12-14T09:05:34;5.70;99.90
10692;DHT22;5396;50.950;6.988;2023-12-14T09:08:00;5.70;99.90
10692;DHT22;5396;50.950;6.988;2023-12-14T09:10:25;5.70;99.90
10692;DHT22;5396;50.950;6.988;2023-12-14T09:12:51;5.70;99.90
10692;DHT22;5396;50.950;6.988;2023-12-14T09:15:16;5.70;99.90
10692;DHT22;5396;50.950;6.988;2023-12-14T09:17:42;5.80;99.90
10692;DHT22;5396;50.950;6.988;2023-12-14T09:20:08;5.80;99.90
10692;DHT22;5396;50.950;6.988;2023-12-14T09:22:34;5.80;99.90
10692;DHT22;5396;50.950;6.988;2023-12-14T09:24:59;5.70;99.90
10692;DHT22;5396;50.950;6.988;2023-12-14T09:27:25;5.70;99.90
10692;DHT22;5396;50.950;6.988;2023-12-14T09:29:51;5.70;99.90
10692;DHT22;5396;50.950;6.988;2023-12-14T09:32:16;5.70;99.90
10692;DHT22;5396;50.950;6.988;2023-12-14T09:34:42;5.70;99.90
10692;DHT22;5396;50.950;6.988;2023-12-14T09:37:08;5.70;99.90
10692;DHT22;5396;50.950;6.988;2023-12-14T09:39:33;5.70;99.90
10692;DHT22;5396;50.950;6.988;2023-12-14T09:42:02;5.60;99.90
10692;DHT22;5396;50.950;6.988;2023-12-14T09:44:29;5.60;99.90
10692;DHT22;5396;50.950;6.988;2023-12-14T09:46:55;5.60;99.90
10692;DHT22;5396;50.950;6.988;2023-12-14T09:49:21;5.60;99.90
10692;DHT22;5396;50.950;6.988;2023-12-14T09:51:49;5.60;99.90
10692;DHT22;5396;50.950;6.988;2023-12-14T09:54:14;5.60;99.90
10692;DHT22;5396;50.950;6.988;2023-12-14T09:56:46;5.60;99.90
10692;DHT22;5396;50.950;6.988;2023-12-14T09:59:12;5.60;99.90
10692;DHT22;5396;50.950;6.988;2023-12-14T10:01:37;5.60;99.90
10692;DHT22;5396;50.950;6.988;2023-12-14T10:04:16;5.60;99.90
10692;DHT22;5396;50.950;6.988;2023-12-14T10:06:43;5.60;99.90
10692;DHT22;5396;50.950;6.988;2023-12-14T10:09:09;5.60;99.90
10692;DHT22;5396;50.950;6.988;2023-12-14T10:11:35;5.60;99.90
10692;DHT22;5396;50.950;6.988;2023-12-14T10:14:02;5.60;99.90
10692;DHT22;5396;50.950;6.988;2023-12-14T10:18:55;5.60;99.90
10692;DHT22;5396;50.950;6.988;2023-12-14T10:21:20;5.50;99.90
10692;DHT22;5396;50.950;6.988;2023-12-14T10:23:46;5.60;99.90
10692;DHT22;5396;50.950;6.988;2023-12-14T10:26:13;5.60;99.90
10692;DHT22;5396;50.950;6.988;2023-12-14T10:28:39;5.60;99.90
10692;DHT22;5396;50.950;6.988;2023-12-14T10:31:05;5.70;99.90
10692;DHT22;5396;50.950;6.988;2023-12-14T10:33:30;5.60;99.90
10692;DHT22;5396;50.950;6.988;2023-12-14T10:35:56;5.70;99.90
10692;DHT22;5396;50.950;6.988;2023-12-14T10:38:22;5.70;99.90
10692;DHT22;5396;50.950;6.988;2023-12-14T10:40:49;5.70;99.90
10692;DHT22;5396;50.950;6.988;2023-12-14T10:43:15;5.70;99.90
10692;DHT22;5396;50.950;6.988;2023-12-14T10:45:41;5.60;99.90
10692;DHT22;5396;50.950;6.988;2023-12-14T10:48:08;5.50;99.90
10692;DHT22;5396;50.950;6.988;2023-12-14T10:50:34;5.50;99.90
10692;DHT22;5396;50.950;6.988;2023-12-14T10:53:02;5.50;99.90
10692;DHT22;5396;50.950;6.988;2023-12-14T10:55:39;5.40;99.90
10692;DHT22;5396;50.950;6.988;2023-12-14T10:58:07;5.40;99.90
10692;DHT22;5396;50.950;6.988;2023-12-14T11:00:33;5.40;99.90
10692;DHT22;5396;50.950;6.988;2023-12-14T11:02:58;5.40;99.90
10692;DHT22;5396;50.950;6.988;2023-12-14T11:05:26;5.40;99.90
10692;DHT22;5396;50.950;6.988;2023-12-14T11:10:35;5.40;99.90
10692;DHT22;5396;50.950;6.988;2023-12-14T11:15:36;5.40;99.90
10692;DHT22;5396;50.950;6.988;2023-12-14T11:23:14;5.40;99.90
10692;DHT22;5396;50.950;6.988;2023-12-14T11:25:40;5.40;99.90
10692;DHT22;5396;50.950;6.988;2023-12-14T11:28:06;5.40;99.90
10692;DHT22;5396;50.950;6.988;2023-12-14T11:30:33;5.40;99.90
10692;DHT22;5396;50.950;6.988;2023-12-14T11:32:58;5.40;99.90
10692;DHT22;5396;50.950;6.988;2023-12-14T11:35:24;5.40;99.90
10692;DHT22;5396;50.950;6.988;2023-12-14T11:37:50;5.50;99.90
10692;DHT22;5396;50.950;6.988;2023-12-14T11:40:15;5.40;99.90
10692;DHT22;5396;50.950;6.988;2023-12-14T11:42:59;5.40;99.90
10692;DHT22;5396;50.950;6.988;2023-12-14T11:45:25;5.40;99.90
10692;DHT22;5396;50.950;6.988;2023-12-14T11:47:51;5.40;99.90
10692;DHT22;5396;50.950;6.988;2023-12-14T11:50:17;5.40;99.90
10692;DHT22;5396;50.950;6.988;2023-12-14T11:52:43;5.30;99.90
10692;DHT22;5396;50.950;6.988;2023-12-14T11:55:11;5.30;99.90
10692;DHT22;5396;50.950;6.988;2023-12-14T11:57:36;5.30;99.90
10692;DHT22;5396;50.950;6.988;2023-12-14T12:00:02;5.30;99.90
10692;DHT22;5396;50.950;6.988;2023-12-14T12:02:28;5.30;99.90
10692;DHT22;5396;50.950;6.988;2023-12-14T12:04:54;5.40;99.90
10692;DHT22;5396;50.950;6.988;2023-12-14T12:07:19;5.30;99.90
10692;DHT22;5396;50.950;6.988;2023-12-14T12:09:45;5.40;99.90
10692;DHT22;5396;50.950;6.988;2023-12-14T12:12:10;5.40;99.90
10692;DHT22;5396;50.950;6.988;2023-12-14T12:14:37;5.40;99.90
10692;DHT22;5396;50.950;6.988;2023-12-14T12:17:04;5.40;99.90
10692;DHT22;5396;50.950;6.988;2023-12-14T12:19:31;5.40;99.90
10692;DHT22;5396;50.950;6.988;2023-12-14T12:21:57;5.40;99.90
10692;DHT22;5396;50.950;6.988;2023-12-14T12:24:22;5.40;99.90
10692;DHT22;5396;50.950;6.988;2023-12-14T12:26:48;5.50;99.90
10692;DHT22;5396;50.950;6.988;2023-12-14T12:29:13;5.50;99.90
10692;DHT22;5396;50.950;6.988;2023-12-14T12:31:39;5.50;99.90
10692;DHT22;5396;50.950;6.988;2023-12-14T12:34:05;5.40;99.90
10692;DHT22;5396;50.950;6.988;2023-12-14T12:36:30;5.50;99.90
10692;DHT22;5396;50.950;6.988;2023-12-14T12:38:56;5.50;99.90
10692;DHT22;5396;50.950;6.988;2023-12-14T12:41:22;5.50;99.90
10692;DHT22;5396;50.950;6.988;2023-12-14T12:43:47;5.50;99.90
10692;DHT22;5396;50.950;6.988;2023-12-14T12:46:13;5.50;99.90
10692;DHT22;5396;50.950;6.988;2023-12-14T12:48:38;5.50;99.90
10692;DHT22;5396;50.950;6.988;2023-12-14T12:51:05;5.50;99.90
10692;DHT22;5396;50.950;6.988;2023-12-14T12:53:30;5.50;99.90
10692;DHT22;5396;50.950;6.988;2023-12-14T12:55:56;5.50;99.90
10692;DHT22;5396;50.950;6.988;2023-12-14T12:58:21;5.50;99.90
10692;DHT22;5396;50.950;6.988;2023-12-14T13:00:47;5.50;99.90
10692;DHT22;5396;50.950;6.988;2023-12-14T13:03:12;5.40;99.90
10692;DHT22;5396;50.950;6.988;2023-12-14T13:05:38;5.40;99.90
10692;DHT22;5396;50.950;6.988;2023-12-14T13:08:03;5.40;99.90
10692;DHT22;5396;50.950;6.988;2023-12-14T13:10:29;5.40;99.90
10692;DHT22;5396;50.950;6.988;2023-12-14T13:12:54;5.40;99.90
10692;DHT22;5396;50.950;6.988;2023-12-14T13:15:21;5.50;99.90
10692;DHT22;5396;50.950;6.988;2023-12-14T13:17:49;5.50;99.90
10692;DHT22;5396;50.950;6.988;2023-12-14T13:20:15;5.50;99.90
10692;DHT22;5396;50.950;6.988;2023-12-14T13:22:40;5.50;99.90
10692;DHT22;5396;50.950;6.988;2023-12-14T13:25:06;5.50;99.90
10692;DHT22;5396;50.950;6.988;2023-12-14T13:27:31;5.60;99.90
10692;DHT22;5396;50.950;6.988;2023-12-14T13:29:57;5.60;99.90
10692;DHT22;5396;50.950;6.988;2023-12-14T13:32:22;5.60;99.90
10692;DHT22;5396;50.950;6.988;2023-12-14T13:34:48;5.50;99.90
10692;DHT22;5396;50.950;6.988;2023-12-14T13:37:13;5.50;99.90
10692;DHT22;5396;50.950;6.988;2023-12-14T13:39:39;5.50;99.90
10692;DHT22;5396;50.950;6.988;2023-12-14T13:42:05;5.50;99.90
10692;DHT22;5396;50.950;6.988;2023-12-14T13:44:32;5.50;99.90
10692;DHT22;5396;50.950;6.988;2023-12-14T13:46:57;5.50;99.90
10692;DHT22;5396;50.950;6.988;2023-12-14T13:49:23;5.50;99.90
10692;DHT22;5396;50.950;6.988;2023-12-14T13:51:48;5.50;99.90
10692;DHT22;5396;50.950;6.988;2023-12-14T13:54:14;5.50;99.90
10692;DHT22;5396;50.950;6.988;2023-12-14T13:56:39;5.60;99.90
10692;DHT22;5396;50.950;6.988;2023-12-14T13:59:05;5.60;99.90
10692;DHT22;5396;50.950;6.988;2023-12-14T14:01:31;5.60;99.90
10692;DHT22;5396;50.950;6.988;2023-12-14T14:03:57;5.60;99.90
10692;DHT22;5396;50.950;6.988;2023-12-14T14:06:22;5.60;99.90
10692;DHT22;5396;50.950;6.988;2023-12-14T14:08:49;5.60;99.90
10692;DHT22;5396;50.950;6.988;2023-12-14T14:11:14;5.50;99.90
10692;DHT22;5396;50.950;6.988;2023-12-14T14:13:40;5.50;99.90
10692;DHT22;5396;50.950;6.988;2023-12-14T14:16:06;5.50;99.90
10692;DHT22;5396;50.950;6.988;2023-12-14T14:18:31;5.40;99.90
10692;DHT22;5396;50.950;6.988;2023-12-14T14:20:57;5.40;99.90
10692;DHT22;5396;50.950;6.988;2023-12-14T14:23:24;5.40;99.90
10692;DHT22;5396;50.950;6.988;2023-12-14T14:25:50;5.40;99.90
10692;DHT22;5396;50.950;6.988;2023-12-14T14:28:19;5.40;99.90
10692;DHT22;5396;50.950;6.988;2023-12-14T14:30:46;5.40;99.90
10692;DHT22;5396;50.950;6.988;2023-12-14T14:33:11;5.50;99.90
10692;DHT22;5396;50.950;6.988;2023-12-14T14:35:39;5.50;99.90
10692;DHT22;5396;50.950;6.988;2023-12-14T14:38:04;5.50;99.90
10692;DHT22;5396;50.950;6.988;2023-12-14T14:40:29;5.50;99.90
10692;DHT22;5396;50.950;6.988;2023-12-14T14:42:55;5.40;99.90
10692;DHT22;5396;50.950;6.988;2023-12-14T14:45:21;5.40;99.90
10692;DHT22;5396;50.950;6.988;2023-12-14T14:47:46;5.40;99.90
10692;DHT22;5396;50.950;6.988;2023-12-14T14:50:12;5.40;99.90
10692;DHT22;5396;50.950;6.988;2023-12-14T14:52:37;5.30;99.90
10692;DHT22;5396;50.950;6.988;2023-12-14T14:55:03;5.30;99.90
10692;DHT22;5396;50.950;6.988;2023-12-14T14:57:28;5.20;99.90
10692;DHT22;5396;50.950;6.988;2023-12-14T14:59:54;5.20;99.90
10692;DHT22;5396;50.950;6.988;2023-12-14T15:02:20;5.20;99.90
10692;DHT22;5396;50.950;6.988;2023-12-14T15:04:45;5.20;99.90
10692;DHT22;5396;50.950;6.988;2023-12-14T15:07:11;5.20;99.90
10692;DHT22;5396;50.950;6.988;2023-12-14T15:09:36;5.20;99.90
10692;DHT22;5396;50.950;6.988;2023-12-14T15:12:02;5.20;99.90
10692;DHT22;5396;50.950;6.988;2023-12-14T15:16:54;5.20;99.90
10692;DHT22;5396;50.950;6.988;2023-12-14T15:19:19;5.20;99.90
10692;DHT22;5396;50.950;6.988;2023-12-14T15:21:45;5.20;99.90
10692;DHT22;5396;50.950;6.988;2023-12-14T15:24:10;5.20;99.90
10692;DHT22;5396;50.950;6.988;2023-12-14T15:26:36;5.20;99.90
10692;DHT22;5396;50.950;6.988;2023-12-14T15:29:01;5.20;99.90
10692;DHT22;5396;50.950;6.988;2023-12-14T15:31:27;5.20;99.90
10692;DHT22;5396;50.950;6.988;2023-12-14T15:33:52;5.20;99.90
10692;DHT22;5396;50.950;6.988;2023-12-14T15:36:18;5.10;99.90
10692;DHT22;5396;50.950;6.988;2023-12-14T15:38:43;5.10;99.90
10692;DHT22;5396;50.950;6.988;2023-12-14T15:41:11;5.20;99.90
10692;DHT22;5396;50.950;6.988;2023-12-14T15:43:37;5.10;99.90
10692;DHT22;5396;50.950;6.988;2023-12-14T15:46:03;5.10;99.90
10692;DHT22;5396;50.950;6.988;2023-12-14T15:48:28;5.10;99.90
10692;DHT22;5396;50.950;6.988;2023-12-14T15:50:54;5.10;99.90
10692;DHT22;5396;50.950;6.988;2023-12-14T15:53:19;5.10;99.90
10692;DHT22;5396;50.950;6.988;2023-12-14T15:55:45;5.10;99.90
10692;DHT22;5396;50.950;6.988;2023-12-14T15:58:10;5.10;99.90
10692;DHT22;5396;50.950;6.988;2023-12-14T16:00:38;5.10;99.90
10692;DHT22;5396;50.950;6.988;2023-12-14T16:03:04;5.00;99.90
10692;DHT22;5396;50.950;6.988;2023-12-14T16:05:30;5.00;99.90
10692;DHT22;5396;50.950;6.988;2023-12-14T16:07:55;5.00;99.90
10692;DHT22;5396;50.950;6.988;2023-12-14T16:10:22;5.00;99.90